sensor_id;sensor_type;location;lat;lon;timestamp;P1;durP1;ratioP1;P2;durP2;ratioP2
14756;SDS011;62446;53.214;10.398;2022-09-09T19:53:13;9.57;;;8.87;;
14756;SDS011;62446;53.214;10.398;2022-09-09T19:56:19;8.90;;;8.20;;
14756;SDS011;62446;53.214;10.398;2022-09-09T19:59:24;9.30;;;8.57;;
14756;SDS011;62446;53.214;10.398;2022-09-09T20:02:28;9.20;;;8.30;;
14756;SDS011;62446;53.214;10.398;2022-09-09T20:50:10;12.03;;;10.83;;
14756;SDS011;62446;53.214;10.398;2022-09-09T20:53:14;12.80;;;11.03;;
14756;SDS011;62446;53.214;10.398;2022-09-09T20:56:18;12.93;;;11.63;;
14756;SDS011;62446;53.214;10.398;2022-09-09T20:59:22;11.83;;;10.43;;
14756;SDS011;62446;53.214;10.398;2022-09-09T21:02:27;9.73;;;8.93;;
14756;SDS011;62446;53.214;10.398;2022-09-09T21:05:32;10.90;;;9.93;;
14756;SDS011;62446;53.214;10.398;2022-09-09T21:08:36;11.60;;;9.47;;
14756;SDS011;62446;53.214;10.398;2022-09-09T21:11:42;9.57;;;8.80;;
14756;SDS011;62446;53.214;10.398;2022-09-09T21:14:45;9.87;;;8.83;;
14756;SDS011;62446;53.214;10.398;2022-09-09T21:17:49;9.07;;;8.10;;
14756;SDS011;62446;53.214;10.398;2022-09-09T21:20:55;9.37;;;8.57;;
14756;SDS011;62446;53.214;10.398;2022-09-09T21:23:58;8.80;;;8.10;;
14756;SDS011;62446;53.214;10.398;2022-09-09T21:27:03;8.40;;;7.63;;
14756;SDS011;62446;53.214;10.398;2022-09-09T21:30:07;8.27;;;7.67;;
14756;SDS011;62446;53.214;10.398;2022-09-09T21:33:12;8.27;;;7.67;;
14756;SDS011;62446;53.214;10.398;2022-09-09T21:36:17;8.80;;;8.10;;
14756;SDS011;62446;53.214;10.398;2022-09-09T21:39:21;10.47;;;7.70;;
14756;SDS011;62446;53.214;10.398;2022-09-09T21:42:25;9.00;;;8.20;;
14756;SDS011;62446;53.214;10.398;2022-09-09T21:45:29;8.90;;;8.00;;
14756;SDS011;62446;53.214;10.398;2022-09-09T21:48:32;9.13;;;8.23;;
14756;SDS011;62446;53.214;10.398;2022-09-09T21:51:37;9.67;;;8.77;;
14756;SDS011;62446;53.214;10.398;2022-09-09T21:54:41;9.10;;;8.50;;
14756;SDS011;62446;53.214;10.398;2022-09-09T21:57:45;9.83;;;8.93;;
14756;SDS011;62446;53.214;10.398;2022-09-09T22:00:49;8.77;;;8.07;;
14756;SDS011;62446;53.214;10.398;2022-09-09T22:03:52;9.03;;;8.33;;
14756;SDS011;62446;53.214;10.398;2022-09-09T22:06:58;8.57;;;7.83;;
14756;SDS011;62446;53.214;10.398;2022-09-09T22:10:02;9.40;;;8.50;;
14756;SDS011;62446;53.214;10.398;2022-09-09T22:13:06;9.10;;;8.40;;
14756;SDS011;62446;53.214;10.398;2022-09-09T22:16:11;8.90;;;8.20;;
14756;SDS011;62446;53.214;10.398;2022-09-09T22:19:17;9.00;;;8.30;;
14756;SDS011;62446;53.214;10.398;2022-09-09T22:22:22;9.00;;;8.10;;
14756;SDS011;62446;53.214;10.398;2022-09-09T22:25:26;8.57;;;7.87;;
14756;SDS011;62446;53.214;10.398;2022-09-09T22:28:30;8.60;;;7.87;;
14756;SDS011;62446;53.214;10.398;2022-09-09T22:31:34;8.23;;;7.63;;
14756;SDS011;62446;53.214;10.398;2022-09-09T22:34:38;8.43;;;7.90;;
14756;SDS011;62446;53.214;10.398;2022-09-09T22:37:43;9.10;;;8.40;;
14756;SDS011;62446;53.214;10.398;2022-09-09T22:40:47;8.47;;;7.80;;
14756;SDS011;62446;53.214;10.398;2022-09-09T22:43:51;8.83;;;8.07;;
14756;SDS011;62446;53.214;10.398;2022-09-09T22:46:55;8.30;;;7.70;;
14756;SDS011;62446;53.214;10.398;2022-09-09T22:49:59;8.73;;;8.07;;
14756;SDS011;62446;53.214;10.398;2022-09-09T22:53:05;7.90;;;7.40;;
